TJBQ/BQN METAR and TAF weather

Enter ICAO airport designator
Station Type Date Time Source
TJBQ METAR 2019/08/25 17:50 UTC NOAA

TJBQ 251750Z 06014KT 10SM CLR 32/25 A3002


Station Type Date Time Source
TJBQ Decoded METAR 2019/08/25 17:50 UTC NOAA

Station name not available
Aug 25, 2019 - 01:50 PM EDT / 2019.08.25 1750 UTC
Wind: from the ENE (060 degrees) at 16 MPH (14 KT):0
Visibility: 10 mile(s):0
Sky conditions: clear
Temperature: 89 F (32 C)
Heat index: 100.6 F (38.1 C):1
Dew Point: 77 F (25 C)
Relative Humidity: 66%
Pressure (altimeter): 30.02 in. Hg (1016 hPa)
ob: TJBQ 251750Z 06014KT 10SM CLR 32/25 A3002
cycle: 18

Station Type Date Time Source
TJBQ TAF 2019/08/25 18:59 UTC NOAA

TAF TJBQ 251739Z 2518/2618 08016KT P6SM VCSH SCT025 BKN050
FM252300 10007KT P6SM SCT030 SCT070
FM260300 VRB04KT P6SM FEW035
FM261450 07014KT P6SM SCT030
AMD NOT SKED 2602/2611

Example: see airport list